Time;durP1;ratioP1;P1;durP2;ratioP2;P2;SDS_P1;SDS_P2;PMS_P1;PMS_P2;Temp;Humidity;BMP_temperature;BMP_pressure;BME280_temperature;BME280_humidity;BME280_pressure;Samples;Min_cycle;Max_cycle;Signal;HPM_P1;HPM_P2
2022/10/17 00:01:44;;;;;;;1.52;1.05;;;;;;;23.10;50.12;97796.41;5072623;28;20058;-28
2022/10/17 00:04:10;;;;;;;3.45;1.45;;;;;;;23.08;50.10;97796.13;5073680;28;20447;-27
2022/10/17 00:06:36;;;;;;;2.05;1.00;;;;;;;23.01;50.24;97802.03;5073630;28;20508;-28
2022/10/17 00:09:02;;;;;;;1.33;1.05;;;;;;;23.04;50.27;97790.00;5073152;28;20020;-28
2022/10/17 00:11:28;;;;;;;2.95;1.23;;;;;;;23.06;50.13;97790.31;5073661;28;20039;-27
2022/10/17 00:13:55;;;;;;;1.52;1.00;;;;;;;23.06;50.37;97797.84;5073442;28;20020;-28
2022/10/17 00:16:32;;;;;;;1.80;1.05;;;;;;;23.02;50.06;97798.03;5073695;28;20444;-28
2022/10/17 00:18:58;;;;;;;1.65;1.00;;;;;;;23.05;50.03;97794.31;5073434;28;20039;-28
2022/10/17 00:21:24;;;;;;;1.58;0.93;;;;;;;23.08;50.20;97795.38;5073775;28;20016;-28
2022/10/17 00:23:50;;;;;;;3.08;0.90;;;;;;;23.08;50.17;97796.13;5073489;28;20029;-30
2022/10/17 00:26:17;;;;;;;1.85;1.00;;;;;;;23.09;49.91;97797.66;5073592;28;20032;-28
2022/10/17 00:28:45;;;;;;;2.20;1.15;;;;;;;23.05;50.01;97802.59;5073378;28;20025;-28
2022/10/17 00:31:11;;;;;;;1.25;0.90;;;;;;;23.01;49.99;97804.03;5073674;28;20381;-28
2022/10/17 00:33:38;;;;;;;1.45;0.85;;;;;;;23.04;50.33;97806.63;5073586;28;20035;-28
2022/10/17 00:36:08;;;;;;;1.20;0.88;;;;;;;23.03;50.23;97810.63;5073371;28;20440;-28
2022/10/17 00:38:35;;;;;;;1.65;1.00;;;;;;;23.03;50.22;97810.63;5073022;28;20178;-28
2022/10/17 00:41:01;;;;;;;2.78;1.00;;;;;;;23.00;50.02;97808.81;5073258;28;20028;-27
2022/10/17 00:43:28;;;;;;;1.10;0.90;;;;;;;23.05;49.82;97813.69;5073426;28;20441;-28
2022/10/17 00:45:54;;;;;;;2.60;1.00;;;;;;;23.05;50.09;97812.91;5071654;28;20068;-27
2022/10/17 00:48:21;;;;;;;1.38;1.00;;;;;;;23.05;49.87;97807.38;5073499;28;20089;-28
2022/10/17 00:50:48;;;;;;;2.20;1.05;;;;;;;23.07;49.86;97805.66;5073097;28;20028;-28
2022/10/17 00:53:15;;;;;;;1.10;1.00;;;;;;;23.07;50.09;97804.91;5073223;28;20066;-28
2022/10/17 00:55:52;;;;;;;1.52;0.90;;;;;;;23.05;49.87;97807.38;5073081;28;20035;-28
2022/10/17 00:58:18;;;;;;;1.13;0.90;;;;;;;23.05;50.14;97804.63;5073242;28;20021;-28
2022/10/17 01:00:47;;;;;;;1.63;1.10;;;;;;;23.09;49.92;97803.19;5073129;28;20457;-28
2022/10/17 01:03:13;;;;;;;2.50;0.93;;;;;;;23.04;50.04;97806.63;5071755;28;20111;-28
2022/10/17 01:05:41;;;;;;;2.65;1.25;;;;;;;23.06;49.78;97809.69;5073104;28;20086;-28
2022/10/17 01:08:08;;;;;;;2.70;1.35;;;;;;;23.03;50.22;97805.09;5071775;28;20029;-28
2022/10/17 01:10:43;;;;;;;3.38;1.50;;;;;;;22.96;50.33;97804.72;5072922;28;20020;-27
2022/10/17 01:13:20;;;;;;;1.85;0.90;;;;;;;23.01;49.84;97795.72;5073240;28;20028;-27
2022/10/17 01:15:57;;;;;;;2.10;1.23;;;;;;;23.02;50.08;97808.31;5072988;28;20021;-28
2022/10/17 01:18:49;;;;;;;1.75;1.00;;;;;;;22.97;50.12;97803.47;5072877;28;20021;-27
2022/10/17 01:21:33;;;;;;;3.55;1.10;;;;;;;22.94;50.26;97796.88;5073624;28;20379;-28
2022/10/17 01:24:25;;;;;;;1.80;1.20;;;;;;;22.99;50.06;97793.47;5075716;28;20025;-27
2022/10/17 01:27:11;;;;;;;2.03;1.35;;;;;;;22.99;50.14;97799.00;5076761;28;20102;-28
2022/10/17 01:29:49;;;;;;;1.95;1.40;;;;;;;22.99;49.67;97801.00;5076821;28;20067;-27
2022/10/17 01:32:30;;;;;;;2.50;1.38;;;;;;;23.01;49.82;97792.97;5076505;28;20032;-28
2022/10/17 01:35:01;;;;;;;2.38;1.58;;;;;;;23.00;50.04;97794.19;5075658;28;20035;-28
2022/10/17 01:37:57;;;;;;;2.70;1.35;;;;;;;22.99;49.86;97796.22;5076332;28;20032;-28
2022/10/17 01:40:36;;;;;;;2.38;1.27;;;;;;;22.96;49.99;97794.41;5076730;28;20120;-28
2022/10/17 01:43:28;;;;;;;2.83;1.60;;;;;;;23.01;49.52;97784.66;5076561;28;20024;-28
2022/10/17 01:46:23;;;;;;;1.75;1.63;;;;;;;22.99;49.63;97796.22;5076502;28;20385;-28
2022/10/17 01:48:48;;;;;;;3.38;1.60;;;;;;;23.03;49.81;97793.25;5076327;28;20039;-28
2022/10/17 01:51:26;;;;;;;2.38;1.50;;;;;;;23.01;49.91;97799.25;5076348;28;20461;-28
2022/10/17 01:54:10;;;;;;;2.35;1.60;;;;;;;23.02;49.74;97798.03;5075957;28;20075;-28
2022/10/17 01:56:38;;;;;;;4.05;2.00;;;;;;;22.97;49.84;97795.19;5076245;28;20563;-27
2022/10/17 01:59:28;;;;;;;1.65;1.45;;;;;;;22.96;49.69;97801.94;5076231;28;20036;-28
2022/10/17 02:01:57;;;;;;;3.08;2.17;;;;;;;22.99;49.85;97798.22;5075974;28;20044;-28
2022/10/17 02:04:24;;;;;;;3.42;2.10;;;;;;;22.95;49.94;97798.41;5076086;28;20047;-29
2022/10/17 02:06:49;;;;;;;3.17;1.75;;;;;;;22.91;49.66;97795.81;5075931;28;20089;-28
2022/10/17 02:09:21;;;;;;;3.67;2.00;;;;;;;22.93;49.92;97798.13;5075914;28;20016;-27
2022/10/17 02:12:00;;;;;;;2.17;1.83;;;;;;;22.93;50.05;97798.88;5075945;28;20070;-28
2022/10/17 02:14:58;;;;;;;2.97;2.00;;;;;;;22.93;49.59;97790.59;5075859;28;20021;-28
2022/10/17 02:17:41;;;;;;;3.08;2.10;;;;;;;22.89;49.86;97789.25;5075755;28;20103;-28
2022/10/17 02:20:07;;;;;;;2.10;1.80;;;;;;;22.89;49.58;97790.00;5075897;28;20020;-27
2022/10/17 02:23:02;;;;;;;2.35;2.00;;;;;;;22.93;49.39;97798.13;5074979;28;20044;-27
2022/10/17 02:25:44;;;;;;;2.60;1.92;;;;;;;22.91;49.39;97793.06;5075718;28;20500;-28
2022/10/17 02:28:39;;;;;;;3.53;2.50;;;;;;;22.91;49.40;97795.81;5075944;28;20024;-28
2022/10/17 02:31:24;;;;;;;3.38;2.47;;;;;;;22.92;49.55;97793.81;5070249;28;20111;-29
2022/10/17 02:33:57;;;;;;;5.32;2.33;;;;;;;22.91;49.58;97792.28;5075552;28;20024;-29
2022/10/17 02:36:28;;;;;;;2.58;2.38;;;;;;;22.91;49.51;97797.81;5075525;28;20094;-29
2022/10/17 02:38:54;;;;;;;3.15;1.90;;;;;;;22.92;49.29;97799.34;5073503;28;20127;-28
2022/10/17 02:41:23;;;;;;;3.55;2.13;;;;;;;22.90;49.26;97799.84;5073964;28;20035;-29
2022/10/17 02:43:52;;;;;;;2.42;2.00;;;;;;;22.92;49.16;97799.34;5075078;28;20044;-27
2022/10/17 02:46:22;;;;;;;2.83;2.03;;;;;;;22.92;49.35;97810.44;5075293;28;20465;-28
2022/10/17 02:49:00;;;;;;;2.42;2.22;;;;;;;22.95;48.97;97795.66;5075494;28;20020;-28
2022/10/17 02:51:51;;;;;;;3.60;2.33;;;;;;;22.95;49.06;97792.13;5075456;28;20028;-28
2022/10/17 02:54:22;;;;;;;3.17;2.72;;;;;;;22.95;49.10;97798.41;5075044;28;20107;-27
2022/10/17 02:57:01;;;;;;;2.63;2.22;;;;;;;22.94;48.99;97796.88;5075261;28;20020;-28
2022/10/17 02:59:34;;;;;;;3.38;2.30;;;;;;;22.89;49.19;97792.78;5074964;28;20025;-28
2022/10/17 03:02:03;;;;;;;2.97;2.63;;;;;;;22.90;49.22;97799.06;5074939;28;20526;-27
2022/10/17 03:04:29;;;;;;;3.72;2.50;;;;;;;22.92;48.93;97794.59;5075239;28;20107;-28
2022/10/17 03:06:55;;;;;;;3.80;2.70;;;;;;;22.95;48.99;97792.13;5074808;28;20111;-28
2022/10/17 03:09:20;;;;;;;4.25;2.72;;;;;;;22.94;49.18;97796.88;5074680;28;20028;-27
2022/10/17 03:11:45;;;;;;;2.65;2.45;;;;;;;22.95;49.20;97800.41;5075142;28;20070;-27
2022/10/17 03:14:12;;;;;;;3.05;2.45;;;;;;;22.94;48.98;97802.41;5074455;28;20022;-31
2022/10/17 03:16:38;;;;;;;2.80;2.30;;;;;;;22.95;49.24;97803.19;5074742;28;20021;-28
2022/10/17 03:19:03;;;;;;;3.50;3.05;;;;;;;22.94;48.89;97802.41;5074707;28;20031;-28
2022/10/17 03:21:29;;;;;;;3.90;2.60;;;;;;;22.96;49.25;97804.72;5074578;28;20028;-28
2022/10/17 03:23:55;;;;;;;6.03;2.90;;;;;;;22.93;49.34;97807.19;5074625;28;20016;-28
2022/10/17 03:26:20;;;;;;;3.33;2.70;;;;;;;22.95;49.06;97801.19;5074644;28;20070;-28
2022/10/17 03:28:46;;;;;;;4.38;2.55;;;;;;;22.97;48.85;97806.25;5074565;28;20527;-29
2022/10/17 03:31:16;;;;;;;2.65;2.45;;;;;;;22.95;49.01;97803.19;5074326;28;20120;-28
2022/10/17 03:33:41;;;;;;;5.78;2.95;;;;;;;22.89;49.21;97801.06;5074184;28;20112;-27
2022/10/17 03:36:13;;;;;;;3.03;2.35;;;;;;;22.94;49.13;97802.41;5074374;28;20044;-27
2022/10/17 03:38:39;;;;;;;2.60;2.40;;;;;;;22.93;48.93;97801.66;5073913;28;20067;-29
2022/10/17 03:41:05;;;;;;;3.35;2.47;;;;;;;22.93;48.88;97803.66;5074130;28;20473;-28
2022/10/17 03:43:31;;;;;;;4.18;2.53;;;;;;;22.89;49.30;97808.59;5073709;28;20031;-28
2022/10/17 03:46:02;;;;;;;3.95;2.60;;;;;;;22.92;48.98;97810.44;5074094;28;20024;-28
2022/10/17 03:48:30;;;;;;;2.97;2.65;;;;;;;22.95;48.90;97805.94;5074263;28;20060;-28
2022/10/17 03:51:05;;;;;;;4.00;2.55;;;;;;;22.89;49.08;97811.38;5073907;28;20119;-28
2022/10/17 03:53:32;;;;;;;3.80;2.47;;;;;;;22.92;48.96;97821.50;5074121;28;20495;-28
2022/10/17 03:56:11;;;;;;;2.80;2.50;;;;;;;22.87;48.82;97814.59;5073890;28;20035;-28
2022/10/17 03:58:36;;;;;;;4.53;2.58;;;;;;;22.88;49.04;97823.66;5072503;28;20024;-28
2022/10/17 04:01:06;;;;;;;3.00;2.70;;;;;;;22.93;48.66;97823.03;5073818;28;20392;-28
2022/10/17 04:03:33;;;;;;;3.03;2.53;;;;;;;22.89;48.67;97828.72;5073909;28;20051;-28
2022/10/17 04:06:00;;;;;;;3.30;2.60;;;;;;;22.89;48.89;97830.72;5073930;28;20055;-28
2022/10/17 04:08:26;;;;;;;4.53;2.70;;;;;;;22.87;48.75;97828.44;5072702;28;20082;-30
2022/10/17 04:10:52;;;;;;;4.25;2.58;;;;;;;22.88;48.66;97826.44;5073624;28;20028;-28
2022/10/17 04:13:17;;;;;;;5.40;3.35;;;;;;;22.90;48.67;97835.03;5073559;28;20031;-28
2022/10/17 04:15:55;;;;;;;3.50;2.70;;;;;;;22.88;48.37;97818.91;5073648;28;20021;-27
2022/10/17 04:18:21;;;;;;;3.20;2.80;;;;;;;22.86;48.49;97824.16;5073722;28;20030;-28
2022/10/17 04:20:47;;;;;;;4.40;2.78;;;;;;;22.84;48.51;97826.66;5073489;28;20028;-28
2022/10/17 04:23:13;;;;;;;3.00;2.70;;;;;;;22.85;48.77;97822.63;5073576;28;20017;-29
2022/10/17 04:25:39;;;;;;;3.58;2.92;;;;;;;22.87;48.57;97824.94;5073481;28;20494;-29
2022/10/17 04:28:04;;;;;;;4.07;2.90;;;;;;;22.85;48.52;97827.41;5073394;28;20107;-28
2022/10/17 04:30:29;;;;;;;6.72;2.83;;;;;;;22.85;48.46;97827.41;5073354;28;20020;-28
2022/10/17 04:32:55;;;;;;;3.55;2.72;;;;;;;22.88;48.33;97832.72;5073600;28;20028;-28
2022/10/17 04:35:20;;;;;;;2.95;2.67;;;;;;;22.87;48.60;97828.44;5073417;28;20086;-29
2022/10/17 04:37:46;;;;;;;4.10;3.08;;;;;;;22.86;48.55;97828.94;5073060;28;20052;-28
2022/10/17 04:40:12;;;;;;;3.47;2.78;;;;;;;22.92;48.39;97832.56;5073442;28;20028;-28
2022/10/17 04:42:37;;;;;;;2.78;2.47;;;;;;;22.84;48.24;97826.66;5073169;28;20099;-28
2022/10/17 04:45:04;;;;;;;3.30;2.78;;;;;;;22.83;48.62;97832.66;5073279;28;20499;-28
2022/10/17 04:47:29;;;;;;;6.85;3.00;;;;;;;22.82;48.40;97833.88;5073125;28;20025;-28
2022/10/17 04:49:55;;;;;;;3.00;2.70;;;;;;;22.83;48.62;97835.41;5073328;28;20031;-27
2022/10/17 04:52:20;;;;;;;2.88;2.60;;;;;;;22.78;48.74;97836.06;5072316;28;20028;-28
2022/10/17 04:54:48;;;;;;;4.43;2.70;;;;;;;22.74;48.51;97832.69;5074361;28;20392;-28
2022/10/17 04:57:13;;;;;;;5.53;3.08;;;;;;;22.79;48.71;97845.88;5077309;28;20448;-28
2022/10/17 04:59:39;;;;;;;3.97;2.85;;;;;;;22.82;48.40;97836.66;5077519;28;20101;-28
2022/10/17 05:02:04;;;;;;;3.75;2.70;;;;;;;22.80;48.69;97836.34;5077464;28;20024;-27
2022/10/17 05:04:30;;;;;;;5.05;2.95;;;;;;;22.78;48.19;97838.81;5077273;28;20032;-28
2022/10/17 05:06:55;;;;;;;4.35;3.08;;;;;;;22.81;48.10;97835.88;5075918;28;20028;-28
2022/10/17 05:09:21;;;;;;;4.18;2.83;;;;;;;22.86;48.10;97845.53;5077148;28;20028;-29
2022/10/17 05:11:46;;;;;;;4.93;2.83;;;;;;;22.79;48.24;97846.66;5077135;28;20052;-28
2022/10/17 05:14:12;;;;;;;4.28;2.60;;;;;;;22.79;48.22;97851.41;5076963;28;20063;-28
2022/10/17 05:16:37;;;;;;;4.75;2.70;;;;;;;22.82;48.29;97845.72;5077174;28;20039;-28
2022/10/17 05:19:03;;;;;;;3.80;2.78;;;;;;;22.87;47.93;97841.53;5075730;28;20051;-28
2022/10/17 05:21:32;;;;;;;3.67;2.58;;;;;;;22.79;48.46;97845.88;5076986;28;20073;-28
2022/10/17 05:24:01;;;;;;;3.38;2.95;;;;;;;22.81;48.39;97843.41;5076985;28;20542;-29
2022/10/17 05:26:26;;;;;;;3.63;2.60;;;;;;;22.82;48.07;97851.25;5076681;28;20036;-27
2022/10/17 05:28:53;;;;;;;3.28;2.72;;;;;;;22.82;47.98;97847.72;5076710;28;20020;-27
2022/10/17 05:31:19;;;;;;;5.82;3.20;;;;;;;22.85;48.08;97846.78;5076740;28;20036;-29
2022/10/17 05:33:45;;;;;;;5.82;3.33;;;;;;;22.79;47.98;97849.41;5076858;28;20032;-28
2022/10/17 05:36:11;;;;;;;5.35;3.10;;;;;;;22.79;48.30;97851.41;5076364;28;20629;-28
2022/10/17 05:38:36;;;;;;;3.40;3.00;;;;;;;22.77;48.31;97853.88;5076316;28;20485;-29
2022/10/17 05:41:04;;;;;;;4.03;2.53;;;;;;;22.74;48.28;97855.59;5076291;28;20090;-28
2022/10/17 05:43:30;;;;;;;4.13;2.42;;;;;;;22.76;48.27;97855.88;5076372;28;20039;-28
2022/10/17 05:45:56;;;;;;;3.60;3.03;;;;;;;22.78;48.11;97860.94;5076579;28;20477;-28
2022/10/17 05:48:22;;;;;;;4.70;2.88;;;;;;;22.80;48.32;97864.00;5076416;28;20050;-29
2022/10/17 05:50:48;;;;;;;4.38;3.08;;;;;;;22.79;47.99;97865.25;5076259;28;20078;-28
2022/10/17 05:53:15;;;;;;;5.50;3.20;;;;;;;22.75;48.03;97870.19;5076314;28;20478;-28
2022/10/17 05:55:40;;;;;;;4.13;3.40;;;;;;;22.80;48.25;97870.31;5076137;28;20025;-27
2022/10/17 05:58:06;;;;;;;3.97;3.22;;;;;;;22.78;48.01;97872.00;5076206;28;20483;-27
2022/10/17 06:00:31;;;;;;;4.70;3.45;;;;;;;22.83;48.15;97874.13;5076222;28;20108;-29
2022/10/17 06:02:57;;;;;;;6.63;3.50;;;;;;;22.81;48.35;97877.38;5074838;28;20403;-29
2022/10/17 06:05:23;;;;;;;5.50;3.50;;;;;;;22.80;48.29;97881.38;5062132;28;20021;-27
2022/10/17 06:07:51;;;;;;;7.20;3.03;;;;;;;22.80;47.97;97884.13;5053222;28;20037;-28
2022/10/17 06:10:17;;;;;;;4.93;3.50;;;;;;;22.83;47.99;97890.72;5054025;28;20388;-28
2022/10/17 06:12:43;;;;;;;5.20;3.50;;;;;;;22.81;48.33;97896.72;5053818;28;20043;-28
2022/10/17 06:15:09;;;;;;;3.97;3.00;;;;;;;22.82;48.07;97891.97;5054043;28;20086;-29
2022/10/17 06:17:35;;;;;;;5.20;3.40;;;;;;;22.83;48.17;97899.03;5053700;28;20060;-28
2022/10/17 06:20:01;;;;;;;5.72;3.80;;;;;;;22.81;48.14;97904.25;5053780;28;20422;-28
2022/10/17 06:22:27;;;;;;;6.78;3.72;;;;;;;22.83;48.30;97902.56;5053749;28;20398;-27
2022/10/17 06:24:52;;;;;;;4.80;3.33;;;;;;;22.82;48.42;97905.78;5053612;28;20017;-28
2022/10/17 06:27:19;;;;;;;3.85;3.33;;;;;;;22.78;48.30;97913.50;5053742;28;20017;-28
2022/10/17 06:29:46;;;;;;;3.75;3.30;;;;;;;22.77;48.33;97920.25;5053446;28;20094;-28
2022/10/17 06:32:11;;;;;;;4.20;3.17;;;;;;;22.76;48.62;97916.72;5053443;28;20025;-28
2022/10/17 06:34:37;;;;;;;5.40;3.50;;;;;;;22.73;48.81;97925.97;5053459;28;20040;-28
2022/10/17 06:37:02;;;;;;;6.95;3.85;;;;;;;22.76;48.57;97929.78;5053438;28;20024;-28
2022/10/17 06:39:32;;;;;;;4.75;3.28;;;;;;;22.74;48.67;97924.72;5053340;28;20033;-27
2022/10/17 06:41:59;;;;;;;6.50;3.35;;;;;;;22.73;48.53;97930.72;5053509;28;20031;-29
2022/10/17 06:44:29;;;;;;;5.90;3.95;;;;;;;22.70;48.79;97935.19;5051963;28;20029;-28
2022/10/17 06:46:55;;;;;;;6.15;3.83;;;;;;;22.76;48.71;97940.84;5053496;28;20111;-29
2022/10/17 06:49:20;;;;;;;4.30;3.38;;;;;;;22.76;48.72;97940.84;5053312;28;20109;-28
2022/10/17 06:51:46;;;;;;;4.97;3.80;;;;;;;22.74;48.87;97949.63;5053352;28;20388;-27
2022/10/17 06:54:12;;;;;;;4.22;3.20;;;;;;;22.71;48.96;97947.03;5052852;28;20035;-30
2022/10/17 06:56:37;;;;;;;4.13;3.33;;;;;;;22.76;48.57;97946.38;5053193;28;20025;-29
2022/10/17 06:59:02;;;;;;;5.57;3.88;;;;;;;22.81;48.59;97959.59;5053036;28;20436;-28
2022/10/17 07:01:30;;;;;;;6.07;3.97;;;;;;;22.82;48.63;97961.13;5053012;28;20032;-27
2022/10/17 07:03:57;;;;;;;6.13;3.70;;;;;;;22.78;48.90;97961.28;5052692;28;20024;-29
2022/10/17 07:06:23;;;;;;;4.88;3.30;;;;;;;22.80;48.45;97966.34;5053009;28;20028;-30
2022/10/17 07:08:49;;;;;;;5.25;3.35;;;;;;;22.71;48.85;97963.63;5052930;28;20053;-28
2022/10/17 07:11:17;;;;;;;4.60;3.83;;;;;;;22.74;49.15;97968.22;5052956;28;20060;-28
2022/10/17 07:13:43;;;;;;;5.55;3.33;;;;;;;22.76;48.73;97980.34;5052925;28;20103;-28
2022/10/17 07:16:09;;;;;;;5.25;3.80;;;;;;;22.76;48.91;97974.81;5052552;28;20032;-27
2022/10/17 07:18:35;;;;;;;8.73;4.45;;;;;;;21.82;51.50;97971.34;5051450;28;20025;-28
2022/10/17 07:21:02;;;;;;;8.43;4.15;;;;;;;21.78;51.83;97976.25;5062514;28;20483;-29
2022/10/17 07:23:28;;;;;;;6.95;4.10;;;;;;;22.11;51.36;97990.16;5072526;28;20028;-27
2022/10/17 07:26:05;;;;;;;5.78;3.88;;;;;;;22.27;50.72;97977.97;5072509;28;20096;-27
2022/10/17 07:28:32;;;;;;;5.07;3.83;;;;;;;22.34;50.69;97987.94;5072078;28;20029;-26
2022/10/17 07:31:05;;;;;;;5.90;3.92;;;;;;;22.41;50.14;97988.34;5072407;28;20028;-27
2022/10/17 07:33:31;;;;;;;8.18;4.88;;;;;;;22.53;49.74;97995.66;5071113;28;20032;-27
2022/10/17 07:35:59;;;;;;;8.30;3.53;;;;;;;22.57;50.03;97984.44;5072300;28;20040;-27
2022/10/17 07:38:29;;;;;;;9.05;3.80;;;;;;;22.60;50.01;97985.50;5072110;28;20127;-27
2022/10/17 07:40:59;;;;;;;5.78;4.28;;;;;;;22.62;49.60;97991.34;5072152;28;20032;-28
2022/10/17 07:43:26;;;;;;;5.45;3.72;;;;;;;22.59;49.72;97993.03;5074056;28;20534;-27
2022/10/17 07:45:52;;;;;;;9.50;3.95;;;;;;;22.66;49.67;97992.66;5074101;28;20028;-28
2022/10/17 07:48:18;;;;;;;8.65;3.75;;;;;;;22.62;49.99;98002.41;5072697;28;20028;-27
2022/10/17 07:50:43;;;;;;;5.68;3.72;;;;;;;22.66;49.51;97994.66;5074109;28;20027;-27
2022/10/17 07:53:09;;;;;;;6.30;3.80;;;;;;;22.46;50.34;97992.47;5074338;28;20032;-27
2022/10/17 07:55:40;;;;;;;6.03;3.38;;;;;;;22.63;49.91;97998.38;5073755;28;20028;-27
2022/10/17 07:58:07;;;;;;;6.57;3.63;;;;;;;22.69;49.81;97999.28;5074017;28;20028;-27
2022/10/17 08:00:33;;;;;;;6.68;4.10;;;;;;;22.68;49.93;98008.81;5073739;28;20523;-27
2022/10/17 08:02:59;;;;;;;4.72;3.13;;;;;;;22.65;49.62;98018.03;5073826;28;20028;-26
2022/10/17 08:05:25;;;;;;;6.30;3.90;;;;;;;22.62;49.99;98013.47;5073799;28;20528;-27
2022/10/17 08:07:50;;;;;;;8.70;3.90;;;;;;;22.58;50.26;98008.09;5073604;28;20488;-26
2022/10/17 08:10:16;;;;;;;6.07;3.70;;;;;;;22.62;50.20;98013.47;5073729;28;20103;-27
2022/10/17 08:12:42;;;;;;;4.78;3.55;;;;;;;22.67;49.69;98018.31;5073632;28;20100;-27
2022/10/17 08:15:08;;;;;;;5.47;3.63;;;;;;;22.66;49.86;98014.78;5073782;28;20035;-27
2022/10/17 08:17:36;;;;;;;5.50;3.60;;;;;;;22.68;49.63;98017.88;5073441;28;20025;-27
2022/10/17 08:20:03;;;;;;;7.68;4.20;;;;;;;22.69;49.73;98018.63;5073414;28;20031;-28
2022/10/17 08:22:29;;;;;;;8.18;4.25;;;;;;;22.71;49.97;98025.22;5073783;28;20103;-28
2022/10/17 08:24:54;;;;;;;5.82;3.60;;;;;;;22.70;49.67;98025.69;5073477;28;20081;-27
2022/10/17 08:27:23;;;;;;;5.60;4.40;;;;;;;22.67;50.09;98024.63;5072959;28;20035;-27
2022/10/17 08:29:52;;;;;;;5.03;3.60;;;;;;;22.70;50.29;98031.22;5072864;28;20052;-27
2022/10/17 08:32:24;;;;;;;5.88;3.13;;;;;;;22.67;50.43;98032.91;5072565;28;20107;-27
2022/10/17 08:34:50;;;;;;;3.95;3.22;;;;;;;22.66;50.68;98030.63;5073156;28;20031;-27
2022/10/17 08:37:15;;;;;;;6.47;3.65;;;;;;;22.70;50.18;98025.69;5072673;28;20028;-27
2022/10/17 08:39:41;;;;;;;5.00;3.80;;;;;;;22.68;50.59;98036.47;5073140;28;20439;-27
2022/10/17 08:42:07;;;;;;;4.60;3.35;;;;;;;22.72;50.29;98031.53;5072416;28;20040;-27
2022/10/17 08:44:38;;;;;;;4.63;3.20;;;;;;;22.57;50.81;98031.44;5073376;28;20464;-27
2022/10/17 08:47:14;;;;;;;4.63;3.42;;;;;;;22.73;50.15;98030.28;5073221;28;20021;-27
2022/10/17 08:49:50;;;;;;;3.60;3.13;;;;;;;22.68;50.64;98028.16;5073065;28;20111;-27
2022/10/17 08:52:28;;;;;;;5.32;3.42;;;;;;;22.71;50.78;98035.53;5073240;28;20061;-26
2022/10/17 08:54:54;;;;;;;4.75;3.30;;;;;;;22.59;50.72;98031.75;5073401;28;20033;-27
2022/10/17 08:57:19;;;;;;;5.20;3.22;;;;;;;22.56;51.20;98027.91;5072108;28;20028;-27
2022/10/17 08:59:51;;;;;;;4.80;3.50;;;;;;;22.70;50.89;98025.69;5073081;28;20496;-27
2022/10/17 09:02:49;;;;;;;4.32;3.42;;;;;;;22.74;50.76;98037.34;5073377;28;20349;-28
2022/10/17 09:05:29;;;;;;;4.00;3.08;;;;;;;22.80;50.63;98035.50;5073531;28;20031;-26
2022/10/17 09:08:10;;;;;;;6.32;3.60;;;;;;;22.63;51.80;98039.84;5072730;28;20029;-26
2022/10/17 09:11:02;;;;;;;3.63;3.22;;;;;;;22.57;51.86;98043.25;5063271;28;20157;-27
2022/10/17 09:13:47;;;;;;;5.32;3.20;;;;;;;22.62;51.65;98049.41;5072432;28;20032;-28
2022/10/17 09:16:45;;;;;;;6.25;3.28;;;;;;;22.55;52.06;98054.03;5070934;28;20028;-27
2022/10/17 09:19:22;;;;;;;4.07;3.15;;;;;;;22.70;51.27;98058.88;5072484;28;20117;-27
2022/10/17 09:21:56;;;;;;;4.40;3.30;;;;;;;22.58;51.84;98053.09;5072665;28;20052;-28
2022/10/17 09:24:37;;;;;;;4.63;3.67;;;;;;;22.42;52.67;98050.69;5072752;28;20028;-26
2022/10/17 09:27:11;;;;;;;6.50;3.13;;;;;;;22.55;51.62;98058.78;5073213;28;20116;-27
2022/10/17 09:29:36;;;;;;;6.03;3.92;;;;;;;22.49;52.75;98060.66;5073009;28;20017;-27
2022/10/17 09:32:11;;;;;;;6.88;3.83;;;;;;;22.14;54.34;98047.25;5072968;28;20039;-27
2022/10/17 09:34:37;;;;;;;8.27;4.63;;;;;;;22.26;54.03;98053.03;5072904;28;20024;-27
2022/10/17 09:37:06;;;;;;;5.97;3.75;;;;;;;22.27;53.67;98049.06;5072977;28;20074;-26
2022/10/17 09:39:32;;;;;;;5.45;3.58;;;;;;;22.16;53.95;98049.53;5072675;28;20044;-27
2022/10/17 09:42:00;;;;;;;8.20;4.15;;;;;;;22.33;53.23;98053.50;5056443;28;20753;-27
2022/10/17 09:44:46;;;;;;;6.03;3.53;;;;;;;22.61;51.85;98056.16;5053112;28;20021;-26
2022/10/17 09:47:40;;;;;;;4.95;3.67;;;;;;;22.03;55.11;98057.25;5056473;28;20078;-27
2022/10/17 09:50:13;;;;;;;;;;;;;;;22.32;53.45;98056.72;5055385;28;20021;-28
2022/10/17 09:52:39;;;;;;;;;;;;;;;22.40;52.79;98058.69;5056689;28;19915;-27
2022/10/17 09:55:16;;;;;;;;;;;;;;;22.61;52.75;98056.16;5056644;28;19908;-27
2022/10/17 09:57:56;;;;;;;;;;;;;;;22.71;51.83;98058.41;5056560;28;20331;-28
2022/10/17 10:00:26;;;;;;;;;;;;;;;22.77;51.97;98058.56;5056525;28;19912;-27
2022/10/17 10:03:07;;;;;;;;;;;;;;;22.79;51.54;98058.84;5056388;28;19909;-26
2022/10/17 10:05:32;;;;;;;;;;;;;;;22.85;51.49;98062.53;5055349;28;19963;-27
2022/10/17 10:08:02;;;;;;;;;;;;;;;22.90;51.12;98067.41;5056623;28;19959;-27
2022/10/17 10:10:29;;;;;;;;;;;;;;;22.88;51.41;98058.81;5055356;28;19916;-27
2022/10/17 10:13:05;;;;;;;;;;;;;;;22.89;51.34;98071.41;5056443;28;19908;-27
2022/10/17 10:15:39;;;;;;;;;;;;;;;22.89;51.06;98052.03;5056306;28;19908;-27
2022/10/17 10:18:23;;;;;;;;;;;;;;;22.86;51.53;98056.53;5056272;28;19913;-28
2022/10/17 10:21:01;;;;;;;;;;;;;;;22.86;51.33;98061.31;5056121;28;20394;-28
2022/10/17 10:23:26;;;;;;;;;;;;;;;22.89;50.97;98057.56;5056558;28;20361;-27
2022/10/17 10:26:00;;;;;;;;;;;;;;;22.57;53.11;98062.63;5055915;28;20056;-27
2022/10/17 10:28:30;;;;;;;;;;;;;;;22.76;52.29;98062.56;5053991;28;19938;-27
2022/10/17 10:30:57;;;;;;;;;;;;;;;22.86;51.96;98058.53;5056066;28;20276;-26
2022/10/17 10:33:26;;;;;;;;;;;;;;;22.81;52.21;98064.69;5056324;28;20357;-27
2022/10/17 10:36:00;;;;;;;;;;;;;;;22.80;52.06;98063.16;5054780;28;19909;-27
2022/10/17 10:38:26;;;;;;;;;;;;;;;22.91;51.94;98063.41;5059881;28;19925;-27
2022/10/17 10:40:53;;;;;;;;;;;;;;;22.82;52.37;98055.16;5073867;28;19916;-28
2022/10/17 10:43:25;;;;;;;;;;;;;;;22.91;51.60;98060.63;5065956;28;19997;-27
2022/10/17 10:45:52;;;;;;;;;;;;;;;22.91;51.84;98063.41;5053859;28;19909;-26
2022/10/17 10:48:22;;;;;;;;;;;;;;;22.89;51.58;98050.03;5053685;28;19974;-27
2022/10/17 10:50:47;;;;;;;;;;;;;;;22.95;51.63;98047.41;5052287;28;20321;-26
2022/10/17 10:53:13;;;;;;;;;;;;;;;22.91;51.68;98052.34;5053417;28;19966;-27
2022/10/17 10:55:48;;;;;;;;;;;;;;;22.97;51.11;98042.16;5062722;28;19963;-27
2022/10/17 10:58:25;;;;;;;;;;;;;;;22.95;51.38;98047.41;5072077;28;19997;-27
2022/10/17 11:00:53;;;;;;;;;;;;;;;22.97;51.36;98042.16;5071952;28;19923;-27
2022/10/17 11:03:25;;;;;;;;;;;;;;;22.98;51.42;98040.94;5073263;28;20680;-26
2022/10/17 11:05:54;;;;;;;;;;;;;;;23.01;51.49;98039.97;5073434;28;19915;-27
2022/10/17 11:08:25;;;;;;;;;;;;;;;22.99;51.19;98041.72;5073428;28;20399;-28
2022/10/17 11:11:03;;;;;;;;;;;;;;;22.98;51.43;98040.94;5069211;28;19909;-27
2022/10/17 11:13:35;;;;;;;;;;;;;;;22.94;51.26;98034.81;5058544;28;19916;-27
2022/10/17 11:16:11;;;;;;;;;;;;;;;22.98;51.27;98038.19;5075063;28;19912;-27
2022/10/17 11:18:58;;;;;;;;;;;;;;;23.00;51.18;98032.91;5074497;28;19908;-28
2022/10/17 11:21:40;;;;;;;;;;;;;;;23.00;51.24;98032.91;5074455;28;19919;-27
2022/10/17 11:24:25;;;;;;;;;;;;;;;22.99;51.43;98036.94;5074487;28;20287;-28
2022/10/17 11:26:57;;;;;;;;;;;;;;;22.99;51.52;98034.19;5074997;28;19919;-26
2022/10/17 11:29:26;;;;;;;;;;;;;;;23.04;51.25;98027.97;5074729;28;20007;-27
2022/10/17 11:31:54;;;;;;;;;;;;;;;23.03;51.42;98028.44;5074848;28;20262;-27
2022/10/17 11:34:24;;;;;;;;;;;;;;;23.00;51.19;98027.38;5074694;28;19912;-27
2022/10/17 11:36:51;;;;;;;;;;;;;;;23.01;51.28;98025.38;5074933;28;20013;-27
2022/10/17 11:39:16;;;;;;;;;;;;;;;23.03;51.18;98023.69;5074351;28;19917;-27
2022/10/17 11:41:51;;;;;;;;;;;;;;;23.06;51.16;98022.75;5074674;28;20340;-27
2022/10/17 11:44:29;;;;;;;;;;;;;;;23.04;51.13;98021.69;5074553;28;20292;-27
2022/10/17 11:47:14;;;;;;;;;;;;;;;23.07;51.19;98020.75;5074507;28;19912;-27
2022/10/17 11:49:44;;;;;;;;;;;;;;;23.07;51.13;98015.22;5074491;28;19920;-27
2022/10/17 11:52:27;;;;;;;;;;;;;;;23.07;51.09;98015.22;5074491;28;19935;-27
2022/10/17 11:54:59;;;;;;;;;;;;;;;23.07;50.96;98009.66;5074339;28;19908;-29
2022/10/17 11:57:43;;;;;;;;;;;;;;;23.04;51.00;98011.38;5074423;28;20001;-27
2022/10/17 12:00:32;;;;;;;;;;;;;;;23.08;50.65;98009.19;5074178;28;19912;-27
2022/10/17 12:03:13;;;;;;;;;;;;;;;23.10;50.83;98009.50;5073423;28;20367;-29